Flight Track Log - Related Links

Times and Time Zones

All times are in EDT time to prevent confusion due to time zone crossing. See the C-GMYM flight status page for this flight to view local times or setup timezone preferences in your user account.


Time Position Orientation Groundspeed Altitude Reporting Facility
EDT Latitude Longitude Course Direction KTS MPH feet Rate Location/Type
Sun 10:29:45 AM 41.8000 -87.7167 90° East 111 128 2,300  Level Chicago TRACON
Sun 10:30:39 AM 41.8000 -87.6833 90° East 119 137 3,000 900 Climbing Chicago TRACON
Sun 10:31:45 AM 41.7833 -87.6333 114° Southeast 121 139 4,100 905 Climbing Chicago TRACON
Sun 10:32:45 AM 41.7500 -87.6000 143° Southeast 122 140 4,900 500 Climbing Chicago TRACON
Sun 10:33:45 AM 41.7333 -87.5500 114° Southeast 154 177 5,100 133 Climbing Chicago TRACON
Sun 10:34:15 AM 41.7256 -87.5300 118° Southeast 135 155 5,100  Level Chicago Center
Sun 10:35:17 AM 41.7003 -87.4783 123° Southeast 151 174 5,100  Level Chicago Center
Sun 10:36:19 AM 41.6736 -87.4244 124° Southeast 166 191 5,100  Level Chicago Center
Sun 10:37:21 AM 41.6489 -87.3731 123° Southeast 166 191 5,100  Level Chicago Center
Sun 10:38:23 AM 41.6250 -87.3206 121° Southeast 165 190 5,100  Level Chicago Center
Sun 10:39:25 AM 41.6178 -87.2497 98° East 162 186 5,100  Level Chicago Center
Sun 10:40:27 AM 41.6189 -87.1894 89° East 163 188 5,100 -48 Level Chicago Center
Sun 10:41:29 AM 41.6181 -87.1286 91° East 164 189 5,000 -48 Descending Chicago Center
Sun 10:42:31 AM 41.6183 -87.0669 90° East 165 190 5,000  Level Chicago Center
Sun 10:43:33 AM 41.6322 -87.0081 72° East 166 191 5,000  Level Chicago Center
Sun 10:44:35 AM 41.6511 -86.9389 70° East 167 192 5,000  Level Chicago Center
Sun 10:45:37 AM 41.6644 -86.8803 73° East 165 190 5,000  Level Chicago Center
Sun 10:46:39 AM 41.6800 -86.8225 70° East 166 191 5,000  Level Chicago Center
Sun 10:47:41 AM 41.6931 -86.7633 74° East 166 191 5,000  Level Chicago Center
Sun 10:48:44 AM 41.7111 -86.7003 69° East 165 190 5,000  Level Chicago Center
Sun 10:49:46 AM 41.7269 -86.6414 70° East 168 193 5,000  Level Chicago Center
Sun 10:50:48 AM 41.7406 -86.5825 73° East 166 191 5,000  Level Chicago Center
Sun 10:51:50 AM 41.7561 -86.5258 70° East 163 188 5,000  Level Chicago Center
Sun 10:52:51 AM 41.7711 -86.4667 71° East 166 191 5,000  Level Chicago Center
Sun 10:53:53 AM 41.7856 -86.4064 72° East 169 194 5,000  Level Chicago Center
Sun 10:54:55 AM 41.8039 -86.3369 70° East 167 192 5,000  Level Chicago Center
Sun 10:55:57 AM 41.8189 -86.2783 71° East 165 190 5,000  Level Chicago Center
Sun 10:56:59 AM 41.8331 -86.2194 72° East 166 191 5,000  Level Chicago Center
Sun 10:58:01 AM 41.8483 -86.1594 71° East 169 194 5,000  Level Chicago Center
Sun 10:59:03 AM 41.8633 -86.1017 71° East 166 191 5,000  Level Chicago Center
Sun 11:00:05 AM 41.8778 -86.0428 72° East 166 191 5,000  Level Chicago Center
Sun 11:01:07 AM 41.8947 -85.9728 72° East 165 190 5,000  Level Chicago Center
Sun 11:02:09 AM 41.9100 -85.9139 71° East 167 192 5,000  Level Chicago Center
Sun 11:03:10 AM 41.9239 -85.8556 72° East 165 190 5,000  Level Chicago Center
Sun 11:04:12 AM 41.9386 -85.7986 71° East 163 188 5,000  Level Chicago Center
Sun 11:05:14 AM 41.9533 -85.7397 71° East 164 189 5,000  Level Chicago Center
Sun 11:06:16 AM 41.9678 -85.6822 71° East 164 189 5,000  Level Chicago Center
Sun 11:07:18 AM 41.9817 -85.6228 73° East 165 190 5,000  Level Chicago Center
Sun 11:08:20 AM 41.9986 -85.5528 72° East 165 190 5,000  Level Chicago Center
Sun 11:09:22 AM 42.0133 -85.4944 71° East 164 189 5,000  Level Chicago Center
Sun 11:10:23 AM 42.0267 -85.4356 73° East 164 189 5,000  Level Chicago Center
Sun 11:11:25 AM 42.0411 -85.3772 72° East 165 190 5,000  Level Chicago Center
Sun 11:12:27 AM 42.0558 -85.3186 71° East 165 190 5,000  Level Chicago Center
Sun 11:13:29 AM 42.0703 -85.2547 73° East 165 190 5,000  Level Chicago Center
Sun 11:14:31 AM 42.0836 -85.2019 71° East 164 189 5,000  Level Chicago Center
Sun 11:15:33 AM 42.0972 -85.1433 73° East 164 189 5,000  Level Chicago Center
Sun 11:16:35 AM 42.1147 -85.0731 71° East 164 189 5,000  Level Chicago Center
Sun 11:17:36 AM 42.1281 -85.0147 73° East 166 191 5,000  Level Chicago Center
Sun 11:18:38 AM 42.1428 -84.9547 72° East 166 191 5,000  Level Chicago Center
Sun 11:19:40 AM 42.1578 -84.8986 70° East 162 186 5,000  Level Chicago Center
Sun 11:20:42 AM 42.1706 -84.8383 74° East 164 189 5,000  Level Chicago Center
Sun 11:21:44 AM 42.1856 -84.7811 71° East 163 188 5,000  Level Chicago Center
Sun 11:22:46 AM 42.2025 -84.7100 72° East 164 189 5,000  Level Chicago Center
Sun 11:23:48 AM 42.2144 -84.6492 75° East 166 191 5,000  Level Chicago Center
Sun 11:24:49 AM 42.2297 -84.5903 71° East 167 192 5,000  Level Chicago Center
Sun 11:25:51 AM 42.2447 -84.5322 71° East 165 190 5,000  Level Chicago Center
Sun 11:26:53 AM 42.2586 -84.4736 72° East 164 189 5,000  Level Chicago Center
Sun 11:27:55 AM 42.2703 -84.4147 75° East 164 189 5,000  Level Chicago Center
Sun 11:29:14 AM 42.2867 -84.3278 76° East 161 185 5,000  Level Cleveland Center
Sun 11:30:15 AM 42.3072 -84.2728 63° Northeast 163 188 5,000 49 Level Cleveland Center
Sun 11:31:16 AM 42.3233 -84.2203 67° East 163 188 5,100 50 Climbing Cleveland Center
Sun 11:32:16 AM 42.3464 -84.1569 64° Northeast 167 192 5,100  Level Cleveland Center
Sun 11:33:17 AM 42.3586 -84.0986 74° East 163 188 5,100  Level Cleveland Center
Sun 11:34:18 AM 42.3728 -84.0403 72° East 165 190 5,100  Level Cleveland Center
Sun 11:35:25 AM 42.3875 -83.9708 74° East 167 192 5,100  Level Cleveland Center
Sun 11:36:19 AM 42.3969 -83.9236 75° East 164 189 5,100  Level Cleveland Center
Sun 11:37:20 AM 42.4175 -83.8628 65° Northeast 165 190 5,100  Level Cleveland Center
Sun 11:38:27 AM 42.4342 -83.7961 71° East 165 190 5,100  Level Cleveland Center
Sun 11:39:28 AM 42.4481 -83.7406 71° East 167 192 5,100  Level Cleveland Center
Sun 11:40:35 AM 42.4625 -83.6708 74° East 166 191 5,100  Level Cleveland Center
Sun 11:41:36 AM 42.4786 -83.6097 70° East 164 189 5,100  Level Cleveland Center
Sun 11:42:37 AM 42.4906 -83.5539 74° East 161 185 5,100  Level Cleveland Center
Sun 11:43:38 AM 42.5067 -83.4956 69° East 167 192 5,100  Level Cleveland Center
Sun 11:44:39 AM 42.5186 -83.4369 75° East 163 188 5,100  Level Cleveland Center
Sun 11:45:45 AM 42.5369 -83.3672 70° East 167 192 5,100  Level Cleveland Center
Sun 11:46:53 AM 42.5531 -83.3031 71° East 166 191 5,100  Level Cleveland Center
Sun 11:47:47 AM 42.5647 -83.2500 73° East 164 189 5,100  Level Cleveland Center
Sun 11:48:48 AM 42.5786 -83.1858 74° East 165 190 5,100  Level Cleveland Center
Sun 11:49:43 AM 42.5925 -83.1356 69° East 164 189 5,100  Level Cleveland Center
Sun 11:51:00 AM 42.5954 -83.0331 88° East  Level FlightAware Approximate
Sun 11:58:00 AM 42.6925 -82.4808 72° East  Level FlightAware Approximate
Sun 11:59:00 AM 42.7106 -82.4046 72° East  Level FlightAware Approximate
Sun 12:00:00 PM 42.7286 -82.3284 72° East  Level FlightAware Approximate
Sun 12:01:00 PM 42.7466 -82.2522 72° East  Level FlightAware Approximate
Sun 12:02:00 PM 42.7645 -82.1759 72° East  Level FlightAware Approximate
Sun 12:03:00 PM 42.7847 -82.1006 70° East  Level FlightAware Approximate
Sun 12:03:52 PM 42.7667 -82.2833 71° East 170 196 5,100  Level Toronto Center
Sun 12:04:00 PM 42.8052 -82.0255 70° East  Level FlightAware Approximate
Sun 12:04:52 PM 42.7833 -82.2167 71° East 170 196 5,100  Level Toronto Center
Sun 12:05:00 PM 42.8253 -81.9501 71° East  Level FlightAware Approximate
Sun 12:06:00 PM 42.8448 -81.8745 71° East  Level FlightAware Approximate
Sun 12:06:00 PM 42.7930 -82.1492 79° East  Level FlightAware Approximate
Sun 12:07:00 PM 42.8596 -81.8172 71° East  Level FlightAware Approximate
Sun 12:08:00 PM 42.8744 -81.7598 71° East  Level FlightAware Approximate
Sun 12:09:00 PM 42.8891 -81.7025 71° East  Level FlightAware Approximate
Sun 12:13:00 PM 42.8675 -81.7363 71° East  Level Estimated
Sun 12:14:00 PM 42.8833 -81.6795 69° East  Level FlightAware Approximate
Sun 12:15:00 PM 42.8991 -81.6226 69° East  Level FlightAware Approximate
Sun 12:16:00 PM 42.9148 -81.5657 69° East  Level FlightAware Approximate
Sun 12:17:00 PM 42.9305 -81.5088 69° East  Level FlightAware Approximate
Sun 12:18:00 PM 42.9462 -81.4519 69° East  Level FlightAware Approximate
Sun 12:18:51 PM 42.9667 -81.3833 79° East 170 196 5,000  Level Toronto Center
Sun 12:19:00 PM 42.9619 -81.3949 69° East  Level FlightAware Approximate
Sun 12:19:51 PM 42.9833 -81.3500 56° Northeast 170 196 5,000  Level Toronto Center
Sun 12:20:00 PM 42.9775 -81.3379 69° East  Level FlightAware Approximate
Sun 12:20:51 PM 43.0000 -81.2667 75° East 160 184 5,100  Level Toronto Center
Sun 12:21:00 PM 42.9931 -81.2809 69° East  Level FlightAware Approximate
Sun 12:21:51 PM 43.0000 -81.2000 90° East 160 184 5,100  Level Toronto Center
Sun 12:22:00 PM 43.0087 -81.2238 70° East  Level FlightAware Approximate
Sun 12:22:51 PM 43.0167 -81.1667 56° Northeast 160 184 5,100  Level Toronto Center
Sun 12:23:00 PM 43.0167 -81.1639 81° East  Level Estimated
Sun 12:23:47 PM 43.0167 -81.1000 90° East 160 184 5,100  Level Toronto Center
Sun 12:24:00 PM 43.0251 -81.1041 79° East  Level FlightAware Approximate
Sun 12:24:47 PM 43.0333 -81.0167 75° East 160 184 5,100  Level Toronto Center
Sun 12:25:47 PM 43.0333 -80.9833 90° East 160 184 5,100  Level Toronto Center
Sun 12:26:47 PM 43.0500 -80.9167 71° East 160 184 5,100  Level Toronto Center
Sun 12:27:47 PM 43.0500 -80.8500 90° East 160 184 5,100  Level Toronto Center
Sun 12:28:47 PM 43.0667 -80.8000 65° Northeast 170 196 5,100  Level Toronto Center
Sun 12:29:48 PM 43.0833 -80.7333 71° East 170 196 5,100  Level Toronto Center
Sun 12:30:48 PM 43.0833 -80.6667 90° East 160 184 5,100  Level Toronto Center
Sun 12:31:47 PM 43.0833 -80.6167 90° East 160 184 5,100 -50 Level Toronto Center
Sun 12:32:48 PM 43.0833 -80.5500 90° East 160 184 5,000  Descending Toronto Center
Sun 12:33:48 PM 43.1000 -80.4833 71° East 170 196 5,100 50 Climbing Toronto Center
Sun 12:34:48 PM 43.1000 -80.4167 90° East 170 196 5,100  Level Toronto Center
Sun 12:35:48 PM 43.1000 -80.3667 90° East 160 184 5,100 -101 Level Toronto Center
Sun 12:36:47 PM 43.1000 -80.3000 90° East 160 184 4,900 -350 Descending Toronto Center
Sun 12:37:48 PM 43.1000 -80.2333 90° East 170 196 4,400 -545 Descending Toronto Center
Sun 12:38:48 PM 43.1000 -80.1500 90° East 160 184 3,800 -550 Descending Toronto Center
Sun 12:39:48 PM 43.0833 -80.1333 144° Southeast 130 150 3,300 -504 Descending Toronto Center
Sun 12:40:47 PM 43.0667 -80.1167 144° Southeast 120 138 2,800 -350 Descending Toronto Center
Sun 12:41:48 PM 43.0667 -80.0667 90° East 110 127 2,600 -99 Descending Toronto Center
Sun 12:42:48 PM 43.0833 -80.0500 36° Northeast 110 127 2,600 -101 Level Toronto Center
Sun 12:43:47 PM 43.1000 -80.0000 65° Northeast 120 138 2,400 -400 Descending Toronto Center
Sun 12:44:48 PM 43.1167 -79.9833 36° Northeast 110 127 1,800 -550 Descending Toronto Center
Sun 12:45:47 PM 43.1333 -79.9333 65° Northeast 100 115 1,300 -504 Descending Toronto Center
Sun 12:46:47 PM 43.1667 -79.9000 36° Northeast 90 104 800 -500 Descending Toronto Center

Login

Don't have an account? Register now (free) for customized features, flight alerts, and more!